createdAt,value
2018-04-24T00:01:50.970Z,7.30
2018-04-24T00:05:53.664Z,8.03
2018-04-24T00:09:56.487Z,6.73
2018-04-24T00:13:59.077Z,6.10
2018-04-24T00:18:01.829Z,6.00
2018-04-24T00:22:04.492Z,6.30
2018-04-24T00:26:07.230Z,6.00
2018-04-24T00:30:09.941Z,8.87
2018-04-24T00:34:14.752Z,7.13
2018-04-24T00:38:18.198Z,5.70
2018-04-24T00:42:22.070Z,7.60
2018-04-24T00:46:25.537Z,6.43
2018-04-24T00:50:28.370Z,6.63
2018-04-24T00:54:31.101Z,6.00
2018-04-24T00:58:34.002Z,6.10
2018-04-24T01:02:36.840Z,7.33
2018-04-24T01:06:39.580Z,9.90
2018-04-24T01:10:43.047Z,5.37
2018-04-24T01:14:45.772Z,6.23
2018-04-24T01:18:48.479Z,5.70
2018-04-24T01:22:51.151Z,6.97
2018-04-24T01:26:53.848Z,7.97
2018-04-24T01:30:56.562Z,7.00
2018-04-24T01:34:59.273Z,6.17
2018-04-24T01:39:02.882Z,8.70
2018-04-24T01:43:05.657Z,10.80
2018-04-24T01:47:08.383Z,9.30
2018-04-24T01:51:13.934Z,9.20
2018-04-24T01:55:16.625Z,6.97
2018-04-24T01:59:19.317Z,11.57
2018-04-24T02:03:22.012Z,11.07
2018-04-24T02:07:24.718Z,9.10
2018-04-24T02:11:27.417Z,9.83
2018-04-24T02:15:30.097Z,8.63
2018-04-24T02:19:32.797Z,9.77
2018-04-24T02:23:35.465Z,11.47
2018-04-24T02:27:38.165Z,12.43
2018-04-24T02:31:41.055Z,8.13
2018-04-24T02:35:43.753Z,8.57
2018-04-24T02:39:46.495Z,11.63
2018-04-24T02:43:49.987Z,12.80
2018-04-24T02:47:52.763Z,7.17
2018-04-24T02:51:55.464Z,9.47
2018-04-24T02:55:58.241Z,9.63
2018-04-24T03:00:01.045Z,8.57
2018-04-24T03:04:03.755Z,10.43
2018-04-24T03:08:06.552Z,10.37
2018-04-24T03:12:09.285Z,10.97
2018-04-24T03:16:13.809Z,9.60
2018-04-24T03:20:16.643Z,8.47
2018-04-24T03:24:19.406Z,11.70
2018-04-24T03:28:22.227Z,12.33
2018-04-24T03:32:25.745Z,13.53
2018-04-24T03:36:29.253Z,12.80
2018-04-24T03:40:32.741Z,9.43
2018-04-24T03:44:36.602Z,14.90
2018-04-24T03:48:39.329Z,14.97
2018-04-24T03:52:42.771Z,11.73
2018-04-24T03:56:45.495Z,11.80
2018-04-24T04:00:48.985Z,16.70
2018-04-24T04:04:51.737Z,10.73
2018-04-24T04:08:54.474Z,13.30
2018-04-24T04:12:57.202Z,10.40
2018-04-24T04:17:00.769Z,10.80
2018-04-24T04:21:15.452Z,13.17
2018-04-24T04:25:18.179Z,12.77
2018-04-24T04:29:21.725Z,11.53
2018-04-24T04:33:24.867Z,15.77
2018-04-24T04:37:27.713Z,14.60
2018-04-24T04:41:30.439Z,10.30
2018-04-24T04:45:34.004Z,9.23
2018-04-24T04:49:38.564Z,14.00
2018-04-24T04:53:41.363Z,9.67
2018-04-24T04:57:44.105Z,9.03
2018-04-24T05:01:46.909Z,9.90
2018-04-24T05:05:49.813Z,10.40
2018-04-24T05:09:52.762Z,9.33
2018-04-24T05:13:55.498Z,10.33
2018-04-24T05:17:58.240Z,8.70
2018-04-24T05:22:01.806Z,16.87
2018-04-24T05:26:04.616Z,8.70
2018-04-24T05:30:07.357Z,9.23
2018-04-24T05:34:10.833Z,8.27
2018-04-24T05:38:13.569Z,8.73
2018-04-24T05:42:17.076Z,9.57
2018-04-24T05:46:20.541Z,8.43
2018-04-24T05:50:23.292Z,8.80
2018-04-24T05:54:26.234Z,9.50
2018-04-24T05:58:29.781Z,9.43
2018-04-24T06:02:32.539Z,9.17
2018-04-24T06:06:35.265Z,7.03
2018-04-24T06:10:37.972Z,9.00
2018-04-24T06:14:40.814Z,8.20
2018-04-24T06:18:43.574Z,9.60
2018-04-24T06:22:46.286Z,11.87
2018-04-24T06:26:49.766Z,10.23
2018-04-24T06:30:52.496Z,7.87
2018-04-24T06:34:56.000Z,7.37
2018-04-24T06:38:59.505Z,9.23
2018-04-24T06:43:03.403Z,7.73
2018-04-24T06:47:06.155Z,6.30
2018-04-24T06:51:08.865Z,9.17
2018-04-24T06:55:11.616Z,6.87
2018-04-24T06:59:14.393Z,5.30
2018-04-24T07:03:17.184Z,5.37
2018-04-24T07:07:19.908Z,5.53
2018-04-24T07:11:23.527Z,4.30
2018-04-24T07:15:26.240Z,6.37
2018-04-24T07:19:29.135Z,3.97
2018-04-24T07:23:33.680Z,3.80
2018-04-24T07:27:37.179Z,4.70
2018-04-24T07:31:39.984Z,6.13
2018-04-24T07:35:44.445Z,2.83
2018-04-24T07:39:47.158Z,4.97
2018-04-24T07:43:49.957Z,3.50
2018-04-24T07:47:53.537Z,6.17
2018-04-24T07:51:57.016Z,8.53
2018-04-24T07:55:59.769Z,7.83
2018-04-24T08:00:02.606Z,3.80
2018-04-24T08:04:05.350Z,5.37
2018-04-24T08:08:08.159Z,3.67
2018-04-24T08:12:10.937Z,5.30
2018-04-24T08:16:14.410Z,7.70
2018-04-24T08:20:17.304Z,9.13
2018-04-24T08:24:20.054Z,3.93
2018-04-24T08:28:22.918Z,5.43
2018-04-24T08:32:25.697Z,5.70
2018-04-24T08:36:28.510Z,3.17
2018-04-24T08:40:31.222Z,3.73
2018-04-24T08:44:33.956Z,3.57
2018-04-24T08:48:36.704Z,5.23
2018-04-24T08:52:39.403Z,5.07
2018-04-24T08:56:42.230Z,8.70
2018-04-24T09:00:45.748Z,4.03
2018-04-24T09:04:50.143Z,4.80
2018-04-24T09:08:52.888Z,6.10
2018-04-24T09:12:55.592Z,3.70
2018-04-24T09:16:58.364Z,4.83
2018-04-24T09:21:01.980Z,6.00
2018-04-24T09:25:05.487Z,7.53
2018-04-24T09:29:11.936Z,5.27
2018-04-24T09:33:14.829Z,5.23
2018-04-24T09:37:17.537Z,5.50
2018-04-24T09:41:20.316Z,4.63
2018-04-24T09:45:23.069Z,4.43
2018-04-24T09:49:25.969Z,8.37
2018-04-24T09:53:28.676Z,10.20
2018-04-24T09:57:31.427Z,6.50
2018-04-24T10:01:34.116Z,8.37
2018-04-24T10:05:37.698Z,4.10
2018-04-24T10:09:40.470Z,3.90
2018-04-24T10:13:43.948Z,5.40
2018-04-24T10:17:46.718Z,7.13
2018-04-24T10:21:49.451Z,13.40
2018-04-24T10:25:52.154Z,3.27
2018-04-24T10:29:54.891Z,5.63
2018-04-24T10:33:57.617Z,11.83
2018-04-24T10:38:00.342Z,4.27
2018-04-24T10:42:03.101Z,4.07
2018-04-24T10:46:05.831Z,4.83
2018-04-24T10:50:08.611Z,6.30
2018-04-24T10:54:11.502Z,4.40
2018-04-24T10:58:14.283Z,6.93
2018-04-24T11:02:17.514Z,3.70
2018-04-24T11:06:20.323Z,4.73
2018-04-24T11:10:24.242Z,6.07
2018-04-24T11:14:27.130Z,3.20
2018-04-24T11:18:30.681Z,4.40
2018-04-24T11:22:33.454Z,5.60
2018-04-24T11:26:37.017Z,4.67
2018-04-24T11:30:40.686Z,5.53
2018-04-24T11:34:43.527Z,3.20
2018-04-24T11:38:47.032Z,9.87
2018-04-24T11:42:49.825Z,4.70
2018-04-24T11:46:52.564Z,3.13
2018-04-24T11:50:55.381Z,5.50
2018-04-24T11:54:58.138Z,4.10
2018-04-24T11:59:01.646Z,3.30
2018-04-24T12:03:05.209Z,3.03
2018-04-24T12:07:08.030Z,4.90
2018-04-24T12:11:10.745Z,4.67
2018-04-24T12:15:13.538Z,2.40
2018-04-24T12:19:16.315Z,3.23
2018-04-24T12:23:20.895Z,2.33
2018-04-24T12:27:24.405Z,4.03
2018-04-24T12:31:28.964Z,4.13
2018-04-24T12:35:31.678Z,1.73
2018-04-24T12:39:34.453Z,6.80
2018-04-24T12:43:39.038Z,2.43
2018-04-24T12:47:41.800Z,3.47
2018-04-24T12:51:44.658Z,2.37
2018-04-24T12:55:47.353Z,3.27
2018-04-24T12:59:50.097Z,4.90
2018-04-24T13:03:53.122Z,2.43
2018-04-24T13:07:56.581Z,3.70
2018-04-24T13:12:00.107Z,2.60
2018-04-24T13:16:03.891Z,4.43
2018-04-24T13:20:06.674Z,4.07
2018-04-24T13:24:09.460Z,4.57
2018-04-24T13:28:12.254Z,2.57
2018-04-24T13:32:15.000Z,4.37
2018-04-24T13:36:17.837Z,5.20
2018-04-24T13:40:20.653Z,5.13
2018-04-24T13:44:23.534Z,6.37
2018-04-24T13:48:27.046Z,5.20
2018-04-24T13:52:29.937Z,8.50
2018-04-24T13:56:32.674Z,3.10
2018-04-24T14:00:35.381Z,4.43
2018-04-24T14:04:38.178Z,5.23
2018-04-24T14:08:40.918Z,3.53
2018-04-24T14:12:44.455Z,7.07
2018-04-24T14:16:47.306Z,5.70
2018-04-24T14:20:50.036Z,5.50
2018-04-24T14:24:53.591Z,4.33
2018-04-24T14:28:56.296Z,4.53
2018-04-24T14:33:00.183Z,6.00
2018-04-24T14:37:02.947Z,3.37
2018-04-24T14:41:05.746Z,5.30
2018-04-24T14:45:09.291Z,6.37
2018-04-24T14:49:12.103Z,4.07
2018-04-24T14:53:14.837Z,3.43
2018-04-24T14:57:17.695Z,3.67
2018-04-24T15:01:20.368Z,4.03
2018-04-24T15:05:23.863Z,6.57
2018-04-24T15:09:26.657Z,5.33
2018-04-24T15:13:29.427Z,3.33
2018-04-24T15:17:32.230Z,4.20
2018-04-24T15:21:35.780Z,4.00
2018-04-24T15:25:39.427Z,6.87
2018-04-24T15:29:42.173Z,4.73
2018-04-24T15:33:44.941Z,4.67
2018-04-24T15:37:47.670Z,6.73
2018-04-24T15:41:50.369Z,4.83
2018-04-24T15:45:53.201Z,6.10
2018-04-24T15:49:56.834Z,4.40
2018-04-24T15:53:59.997Z,5.60
2018-04-24T15:58:02.721Z,8.37
2018-04-24T16:02:05.467Z,4.13
2018-04-24T16:06:08.170Z,4.40
2018-04-24T16:10:10.897Z,6.87
2018-04-24T16:14:14.382Z,5.13
2018-04-24T16:18:17.135Z,4.20
2018-04-24T16:22:19.861Z,15.27
2018-04-24T16:26:22.602Z,4.10
2018-04-24T16:30:26.119Z,5.10
2018-04-24T16:34:28.904Z,6.90
2018-04-24T16:38:32.670Z,6.70
2018-04-24T16:42:35.393Z,4.27
2018-04-24T16:46:38.192Z,5.30
2018-04-24T16:50:41.158Z,11.83
2018-04-24T16:54:43.889Z,18.60
2018-04-24T16:58:46.763Z,8.00
2018-04-24T17:02:49.493Z,5.40
2018-04-24T17:06:52.265Z,5.93
2018-04-24T17:10:55.044Z,7.70
2018-04-24T17:14:57.792Z,12.03
2018-04-24T17:19:01.626Z,11.47
2018-04-24T17:23:04.740Z,18.13
2018-04-24T17:27:07.497Z,15.13
2018-04-24T17:31:10.197Z,10.33
2018-04-24T17:35:12.928Z,7.27
2018-04-24T17:39:16.476Z,5.93
2018-04-24T17:43:19.189Z,6.13
2018-04-24T17:47:21.945Z,9.10
2018-04-24T17:51:25.534Z,10.90
2018-04-24T17:55:28.342Z,5.83
2018-04-24T17:59:31.257Z,9.73
2018-04-24T18:03:34.865Z,7.33
2018-04-24T18:07:37.577Z,6.60
2018-04-24T18:11:40.373Z,6.13
2018-04-24T18:15:43.971Z,8.80
2018-04-24T18:19:46.718Z,5.97
2018-04-24T18:23:50.424Z,6.93
2018-04-24T18:27:53.304Z,7.93
2018-04-24T18:31:56.213Z,6.70
2018-04-24T18:35:59.798Z,14.47
2018-04-24T18:40:02.949Z,7.67
2018-04-24T18:44:05.698Z,9.30
2018-04-24T18:48:08.520Z,9.50
2018-04-24T18:52:12.094Z,7.77
2018-04-24T18:56:15.126Z,7.80
2018-04-24T19:00:19.144Z,10.30
2018-04-24T19:04:21.927Z,8.03
2018-04-24T19:08:24.736Z,9.00
2018-04-24T19:12:28.870Z,10.77
2018-04-24T19:16:31.669Z,12.50
2018-04-24T19:20:35.605Z,7.60
2018-04-24T19:24:44.708Z,10.63
2018-04-24T19:28:47.788Z,8.90
2018-04-24T19:32:51.416Z,7.23
2018-04-24T19:36:54.135Z,8.50
2018-04-24T19:41:02.657Z,7.97
2018-04-24T19:45:06.120Z,8.40
2018-04-24T19:49:15.483Z,8.23
2018-04-24T19:53:18.462Z,9.17
2018-04-24T19:57:22.027Z,9.20
2018-04-24T20:01:24.742Z,8.90
2018-04-24T20:05:27.661Z,9.47
2018-04-24T20:09:31.187Z,8.80
2018-04-24T20:13:34.749Z,8.60
2018-04-24T20:17:37.709Z,10.40
2018-04-24T20:21:41.222Z,9.90
2018-04-24T20:25:44.034Z,10.73
2018-04-24T20:29:46.790Z,9.53
2018-04-24T20:33:49.565Z,9.37
2018-04-24T20:37:52.375Z,8.60
2018-04-24T20:41:55.145Z,8.57
2018-04-24T20:45:57.878Z,13.57
2018-04-24T20:50:00.616Z,10.13
2018-04-24T20:54:03.447Z,12.27
2018-04-24T20:58:06.182Z,9.57
2018-04-24T21:02:09.672Z,9.57
2018-04-24T21:06:12.474Z,11.00
2018-04-24T21:10:15.199Z,13.03
2018-04-24T21:14:18.733Z,11.00
2018-04-24T21:18:21.460Z,14.00
2018-04-24T21:22:24.179Z,10.23
2018-04-24T21:26:26.993Z,8.60
2018-04-24T21:30:29.763Z,8.63
2018-04-24T21:34:32.588Z,8.53
2018-04-24T21:38:35.297Z,9.60
2018-04-24T21:42:38.794Z,8.57
2018-04-24T21:46:41.721Z,9.40
2018-04-24T21:50:45.210Z,9.87
2018-04-24T21:54:47.958Z,8.73
2018-04-24T21:58:50.943Z,10.13
2018-04-24T22:02:53.727Z,8.23
2018-04-24T22:06:57.490Z,8.27
2018-04-24T22:11:01.030Z,8.00
2018-04-24T22:15:03.809Z,13.20
2018-04-24T22:19:06.612Z,9.57
2018-04-24T22:23:09.368Z,10.37
2018-04-24T22:27:12.986Z,9.83
2018-04-24T22:31:15.738Z,13.30
2018-04-24T22:35:18.564Z,9.33
2018-04-24T22:39:22.235Z,9.20
2018-04-24T22:43:25.007Z,10.27
2018-04-24T22:47:27.920Z,8.77
2018-04-24T22:51:30.658Z,9.47
2018-04-24T22:55:33.465Z,10.90
2018-04-24T22:59:36.385Z,9.90
2018-04-24T23:03:39.208Z,10.40
2018-04-24T23:07:41.970Z,9.80
2018-04-24T23:11:56.659Z,9.80
2018-04-24T23:16:11.226Z,9.77
2018-04-24T23:20:16.490Z,9.00
2018-04-24T23:24:19.201Z,10.83
2018-04-24T23:28:21.967Z,11.20
2018-04-24T23:32:24.708Z,9.13
2018-04-24T23:36:27.520Z,10.60
2018-04-24T23:40:30.297Z,9.90
2018-04-24T23:44:33.034Z,9.80
2018-04-24T23:48:36.524Z,9.10
2018-04-24T23:52:39.337Z,10.40
2018-04-24T23:56:42.116Z,12.93
